createdAt,value
2023-01-18T00:00:32.497Z,7.43
2023-01-18T00:03:01.012Z,10.83
2023-01-18T00:05:28.878Z,10.90
2023-01-18T00:07:56.811Z,8.90
2023-01-18T00:10:25.982Z,9.93
2023-01-18T00:12:57.244Z,9.27
2023-01-18T00:15:25.464Z,8.13
2023-01-18T00:17:53.663Z,8.70
2023-01-18T00:20:23.780Z,9.47
2023-01-18T00:22:52.685Z,10.60
2023-01-18T00:25:21.833Z,8.43
2023-01-18T00:27:52.853Z,8.83
2023-01-18T00:30:22.997Z,8.90
2023-01-18T00:32:56.094Z,8.60
2023-01-18T00:35:24.473Z,9.00
2023-01-18T00:37:53.495Z,9.07
2023-01-18T00:40:22.395Z,10.50
2023-01-18T00:43:09.176Z,11.23
2023-01-18T00:45:37.110Z,8.93
2023-01-18T00:48:05.227Z,9.37
2023-01-18T00:50:32.976Z,8.30
2023-01-18T00:53:03.206Z,8.87
2023-01-18T00:55:30.993Z,8.37
2023-01-18T00:58:00.163Z,8.17
2023-01-18T01:00:27.986Z,9.37
2023-01-18T01:02:56.545Z,9.17
2023-01-18T01:05:43.560Z,9.33
2023-01-18T01:08:16.839Z,9.40
2023-01-18T01:10:46.359Z,9.67
2023-01-18T01:13:34.526Z,7.23
2023-01-18T01:16:23.685Z,8.07
2023-01-18T01:19:09.484Z,8.20
2023-01-18T01:21:55.279Z,9.57
2023-01-18T01:24:40.545Z,8.83
2023-01-18T01:27:08.382Z,9.30
2023-01-18T01:29:37.490Z,9.10
2023-01-18T01:32:05.724Z,8.73
2023-01-18T01:34:33.743Z,9.50
2023-01-18T01:37:01.613Z,10.00
2023-01-18T01:39:29.943Z,9.90
2023-01-18T01:41:57.827Z,9.33
2023-01-18T01:44:52.004Z,8.93
2023-01-18T01:47:35.857Z,9.70
2023-01-18T01:50:10.856Z,10.33
2023-01-18T01:52:42.546Z,8.23
2023-01-18T01:55:16.932Z,9.53
2023-01-18T01:57:49.500Z,9.63
2023-01-18T02:00:20.635Z,9.37
2023-01-18T02:02:54.429Z,12.27
2023-01-18T02:05:22.855Z,9.20
2023-01-18T02:07:51.224Z,10.43
2023-01-18T02:10:19.157Z,11.07
2023-01-18T02:12:50.011Z,9.20
2023-01-18T02:15:20.336Z,10.83
2023-01-18T02:18:13.979Z,15.03
2023-01-18T02:21:10.255Z,12.70
2023-01-18T02:24:23.316Z,13.10
2023-01-18T02:27:15.716Z,12.40
2023-01-18T02:30:08.234Z,14.07
2023-01-18T02:32:49.597Z,11.97
2023-01-18T02:35:26.516Z,14.97
2023-01-18T02:38:06.657Z,14.00
2023-01-18T02:40:43.241Z,15.90
2023-01-18T02:43:31.403Z,14.13
2023-01-18T02:46:19.867Z,15.83
2023-01-18T02:48:50.557Z,15.33
2023-01-18T02:51:18.532Z,15.20
2023-01-18T02:53:49.698Z,15.30
2023-01-18T02:56:22.486Z,14.80
2023-01-18T02:58:56.002Z,12.80
2023-01-18T03:01:29.052Z,16.50
2023-01-18T03:04:01.866Z,15.83
2023-01-18T03:06:31.232Z,15.53
2023-01-18T03:09:00.837Z,16.07
2023-01-18T03:11:37.423Z,15.63
2023-01-18T03:14:22.956Z,17.40
2023-01-18T03:17:01.756Z,14.50
2023-01-18T03:19:58.657Z,14.73
2023-01-18T03:22:42.596Z,12.77
2023-01-18T03:25:14.490Z,12.30
2023-01-18T03:28:03.097Z,10.77
2023-01-18T03:30:52.182Z,13.03
2023-01-18T03:33:45.584Z,16.50
2023-01-18T03:36:23.414Z,13.93
2023-01-18T03:38:55.705Z,13.20
2023-01-18T03:41:27.830Z,15.33
2023-01-18T03:43:59.243Z,12.90
2023-01-18T03:46:30.209Z,13.30
2023-01-18T03:48:59.925Z,11.87
2023-01-18T03:51:37.383Z,13.87
2023-01-18T03:54:11.950Z,12.23
2023-01-18T03:56:47.318Z,11.63
2023-01-18T03:59:15.372Z,11.27
2023-01-18T04:01:44.854Z,13.30
2023-01-18T04:04:14.027Z,14.63
2023-01-18T04:06:42.515Z,12.47
2023-01-18T04:09:11.876Z,13.43
2023-01-18T04:11:39.672Z,12.67
2023-01-18T04:14:07.451Z,11.13
2023-01-18T04:16:35.243Z,12.03
2023-01-18T04:19:03.179Z,13.10
2023-01-18T04:21:32.391Z,14.47
2023-01-18T04:24:00.264Z,13.33
2023-01-18T04:26:28.212Z,15.40
2023-01-18T04:28:55.960Z,16.03
2023-01-18T04:31:23.856Z,13.70
2023-01-18T04:33:51.735Z,12.43
2023-01-18T04:36:20.129Z,14.67
2023-01-18T04:38:54.035Z,12.53
2023-01-18T04:41:22.155Z,14.27
2023-01-18T04:43:50.217Z,11.37
2023-01-18T04:46:18.163Z,14.23
2023-01-18T04:48:46.503Z,9.47
2023-01-18T04:51:15.252Z,13.57
2023-01-18T04:53:43.758Z,12.63
2023-01-18T04:56:13.258Z,10.53
2023-01-18T04:58:41.069Z,10.37
2023-01-18T05:01:12.282Z,11.40
2023-01-18T05:03:42.271Z,10.63
2023-01-18T05:06:11.821Z,9.30
2023-01-18T05:08:42.391Z,8.70
2023-01-18T05:11:13.801Z,9.27
2023-01-18T05:13:42.922Z,10.40
2023-01-18T05:16:14.932Z,7.30
2023-01-18T05:18:42.845Z,7.30
2023-01-18T05:21:11.269Z,6.77
2023-01-18T05:23:40.103Z,7.80
2023-01-18T05:26:14.453Z,7.30
2023-01-18T05:28:44.798Z,5.73
2023-01-18T05:31:12.765Z,6.20
2023-01-18T05:33:40.796Z,5.07
2023-01-18T05:36:09.220Z,6.30
2023-01-18T05:38:37.344Z,5.83
2023-01-18T05:41:05.296Z,5.67
2023-01-18T05:43:35.580Z,5.53
2023-01-18T05:46:05.962Z,4.67
2023-01-18T05:48:33.922Z,4.90
2023-01-18T05:51:01.899Z,5.30
2023-01-18T05:53:29.777Z,8.90
2023-01-18T05:55:58.881Z,5.57
2023-01-18T05:58:27.528Z,5.60
2023-01-18T06:00:56.858Z,4.40
2023-01-18T06:03:26.442Z,5.80
2023-01-18T06:05:54.343Z,5.13
2023-01-18T06:08:22.492Z,6.00
2023-01-18T06:10:54.502Z,5.80
2023-01-18T06:13:23.043Z,4.80
2023-01-18T06:15:51.808Z,4.03
2023-01-18T06:18:19.998Z,5.70
2023-01-18T06:20:49.255Z,5.10
2023-01-18T06:23:17.083Z,5.50
2023-01-18T06:25:45.049Z,6.10
2023-01-18T06:28:13.139Z,4.67
2023-01-18T06:30:42.833Z,5.33
2023-01-18T06:33:10.680Z,4.97
2023-01-18T06:35:38.499Z,5.57
2023-01-18T06:38:08.114Z,5.00
2023-01-18T06:40:36.045Z,7.33
2023-01-18T06:43:04.045Z,5.13
2023-01-18T06:45:31.950Z,6.60
2023-01-18T06:47:59.835Z,5.13
2023-01-18T06:50:28.194Z,4.80
2023-01-18T06:52:56.922Z,5.23
2023-01-18T06:55:26.401Z,5.13
2023-01-18T06:57:55.103Z,6.40
2023-01-18T07:00:24.962Z,5.47
2023-01-18T07:02:53.244Z,6.20
2023-01-18T07:05:21.179Z,8.10
2023-01-18T07:07:48.971Z,8.10
2023-01-18T07:10:17.167Z,7.63
2023-01-18T07:12:48.679Z,8.83
2023-01-18T07:15:22.067Z,8.73
2023-01-18T07:17:51.208Z,8.63
2023-01-18T07:20:19.806Z,9.73
2023-01-18T07:22:51.807Z,10.13
2023-01-18T07:25:20.705Z,10.03
2023-01-18T07:27:50.132Z,9.67
2023-01-18T07:30:18.683Z,11.70
2023-01-18T07:32:49.621Z,11.40
2023-01-18T07:35:18.317Z,8.50
2023-01-18T07:37:49.332Z,9.33
2023-01-18T07:40:18.010Z,9.00
2023-01-18T07:42:46.009Z,11.00
2023-01-18T07:45:15.402Z,11.87
2023-01-18T07:47:46.364Z,8.83
2023-01-18T07:50:17.444Z,10.57
2023-01-18T07:52:45.236Z,12.37
2023-01-18T07:55:13.082Z,13.30
2023-01-18T07:57:40.947Z,10.90
2023-01-18T08:00:10.844Z,8.97
2023-01-18T08:02:45.490Z,9.97
2023-01-18T08:05:13.371Z,9.50
2023-01-18T08:07:41.162Z,10.40
2023-01-18T08:10:10.122Z,10.43
2023-01-18T08:12:37.986Z,8.73
2023-01-18T08:15:07.025Z,9.93
2023-01-18T08:17:35.876Z,12.53
2023-01-18T08:20:06.156Z,8.37
2023-01-18T08:22:34.224Z,9.00
2023-01-18T08:25:02.238Z,9.73
2023-01-18T08:27:30.207Z,8.50
2023-01-18T08:29:58.209Z,10.63
2023-01-18T08:32:26.181Z,8.83
2023-01-18T08:34:54.041Z,8.10
2023-01-18T08:37:23.785Z,9.27
2023-01-18T08:39:51.693Z,9.10
2023-01-18T08:42:19.542Z,8.93
2023-01-18T08:44:48.782Z,9.57
2023-01-18T08:47:16.984Z,7.80
2023-01-18T08:49:44.965Z,9.70
2023-01-18T08:52:15.295Z,9.63
2023-01-18T08:54:44.524Z,8.80
2023-01-18T08:57:12.423Z,10.03
2023-01-18T08:59:40.329Z,8.27
2023-01-18T09:02:10.615Z,7.73
2023-01-18T09:04:38.537Z,8.17
2023-01-18T09:07:06.747Z,8.80
2023-01-18T09:09:34.585Z,7.80
2023-01-18T09:12:03.848Z,7.70
2023-01-18T09:14:31.754Z,7.30
2023-01-18T09:16:59.647Z,9.30
2023-01-18T09:19:27.546Z,7.87
2023-01-18T09:21:55.480Z,6.97
2023-01-18T09:24:23.521Z,7.23
2023-01-18T09:26:52.172Z,7.07
2023-01-18T09:29:21.727Z,7.47
2023-01-18T09:31:50.104Z,8.27
2023-01-18T09:34:19.935Z,7.70
2023-01-18T09:36:50.932Z,9.13
2023-01-18T09:39:19.445Z,8.07
2023-01-18T09:41:53.232Z,7.80
2023-01-18T09:44:28.734Z,7.07
2023-01-18T09:46:59.807Z,6.60
2023-01-18T09:49:33.867Z,7.33
2023-01-18T09:52:25.760Z,8.13
2023-01-18T09:55:01.455Z,7.50
2023-01-18T09:57:46.720Z,5.57
2023-01-18T10:00:22.834Z,8.40
2023-01-18T10:02:55.265Z,6.13
2023-01-18T10:05:26.464Z,6.90
2023-01-18T10:08:03.694Z,6.93
2023-01-18T10:10:37.332Z,8.03
2023-01-18T10:13:31.018Z,7.77
2023-01-18T10:16:01.318Z,8.03
2023-01-18T10:18:29.558Z,7.40
2023-01-18T10:21:02.015Z,11.07
2023-01-18T10:23:35.791Z,9.80
2023-01-18T10:26:07.534Z,7.27
2023-01-18T10:28:47.662Z,7.00
2023-01-18T10:31:36.652Z,9.47
2023-01-18T10:34:15.384Z,9.43
2023-01-18T10:36:46.898Z,8.17
2023-01-18T10:39:27.958Z,7.57
2023-01-18T10:42:00.185Z,10.67
2023-01-18T10:44:29.045Z,10.13
2023-01-18T10:47:00.579Z,6.67
2023-01-18T10:49:36.498Z,7.17
2023-01-18T10:52:26.628Z,7.77
2023-01-18T10:54:58.031Z,8.10
2023-01-18T10:57:30.892Z,7.13
2023-01-18T11:00:00.073Z,8.43
2023-01-18T11:02:32.797Z,6.90
2023-01-18T11:05:16.972Z,7.97
2023-01-18T11:07:45.096Z,9.83
2023-01-18T11:10:25.378Z,8.50
2023-01-18T11:12:54.311Z,8.70
2023-01-18T11:15:30.564Z,6.30
2023-01-18T11:18:06.620Z,9.87
2023-01-18T11:20:39.841Z,7.17
2023-01-18T11:23:17.891Z,7.43
2023-01-18T11:25:55.607Z,6.60
2023-01-18T11:28:27.248Z,8.50
2023-01-18T11:30:58.647Z,5.60
2023-01-18T11:33:29.479Z,11.90
2023-01-18T11:36:00.224Z,7.20
2023-01-18T11:38:30.642Z,8.17
2023-01-18T11:41:15.254Z,6.13
2023-01-18T11:43:54.855Z,8.67
2023-01-18T11:46:35.740Z,8.73
2023-01-18T11:49:17.247Z,8.03
2023-01-18T11:51:50.107Z,5.90
2023-01-18T11:54:26.801Z,6.00
2023-01-18T11:56:59.584Z,7.20
2023-01-18T11:59:31.001Z,9.47
2023-01-18T12:02:31.551Z,7.20
2023-01-18T12:05:28.184Z,6.40
2023-01-18T12:08:22.387Z,6.33
2023-01-18T12:11:07.229Z,7.50
2023-01-18T12:13:37.775Z,7.13
2023-01-18T12:16:16.118Z,7.80
2023-01-18T12:19:06.252Z,6.63
2023-01-18T12:21:47.248Z,5.97
2023-01-18T12:24:34.953Z,5.70
2023-01-18T12:27:14.063Z,7.43
2023-01-18T12:30:12.320Z,6.93
2023-01-18T12:32:57.682Z,7.23
2023-01-18T12:35:42.734Z,9.53
2023-01-18T12:38:18.946Z,8.77
2023-01-18T12:41:17.623Z,7.67
2023-01-18T12:44:00.200Z,7.77
2023-01-18T12:46:32.542Z,6.07
2023-01-18T12:49:04.941Z,7.20
2023-01-18T12:51:36.505Z,9.40
2023-01-18T12:54:14.296Z,7.60
2023-01-18T12:56:46.421Z,7.37
2023-01-18T12:59:20.530Z,7.30
2023-01-18T13:01:55.080Z,6.30
2023-01-18T13:04:29.180Z,6.77
2023-01-18T13:07:01.192Z,5.43
2023-01-18T13:09:36.984Z,6.80
2023-01-18T13:12:07.012Z,8.17
2023-01-18T13:14:42.020Z,6.57
2023-01-18T13:17:17.064Z,4.77
2023-01-18T13:19:51.448Z,6.30
2023-01-18T13:22:28.510Z,6.10
2023-01-18T13:25:26.256Z,6.43
2023-01-18T13:28:01.397Z,6.43
2023-01-18T13:30:31.876Z,8.77
2023-01-18T13:33:00.432Z,5.63
2023-01-18T13:35:33.311Z,7.23
2023-01-18T13:38:10.406Z,7.17
2023-01-18T13:40:42.985Z,6.07
2023-01-18T13:43:44.159Z,6.57
2023-01-18T13:46:21.658Z,9.00
2023-01-18T13:48:54.358Z,9.53
2023-01-18T13:51:52.290Z,5.37
2023-01-18T13:54:55.325Z,5.33
2023-01-18T13:57:24.770Z,5.70
2023-01-18T13:59:53.467Z,4.87
2023-01-18T14:02:27.670Z,4.57
2023-01-18T14:05:05.878Z,4.50
2023-01-18T14:07:41.458Z,6.20
2023-01-18T14:10:25.085Z,5.80
2023-01-18T14:12:55.952Z,6.00
2023-01-18T14:15:30.282Z,6.67
2023-01-18T14:17:59.475Z,6.03
2023-01-18T14:20:58.149Z,6.03
2023-01-18T14:23:53.002Z,4.37
2023-01-18T14:26:22.492Z,6.23
2023-01-18T14:28:56.922Z,5.60
2023-01-18T14:31:30.761Z,5.80
2023-01-18T14:33:58.791Z,6.80
2023-01-18T14:36:29.534Z,4.77
2023-01-18T14:39:12.987Z,5.60
2023-01-18T14:41:43.391Z,8.70
2023-01-18T14:44:22.526Z,6.50
2023-01-18T14:46:52.280Z,7.27
2023-01-18T14:49:26.201Z,6.03
2023-01-18T14:51:54.972Z,6.27
2023-01-18T14:54:26.118Z,5.87
2023-01-18T14:57:02.700Z,5.03
2023-01-18T14:59:33.368Z,7.33
2023-01-18T15:02:04.481Z,5.23
2023-01-18T15:04:38.957Z,7.43
2023-01-18T15:07:10.490Z,6.00
2023-01-18T15:09:40.737Z,7.87
2023-01-18T15:12:11.079Z,5.43
2023-01-18T15:14:48.586Z,5.47
2023-01-18T15:17:21.859Z,6.30
2023-01-18T15:19:53.064Z,5.83
2023-01-18T15:22:25.656Z,6.70
2023-01-18T15:24:53.648Z,6.40
2023-01-18T15:27:21.751Z,4.97
2023-01-18T15:29:53.908Z,6.20
2023-01-18T15:32:23.345Z,5.50
2023-01-18T15:34:53.246Z,6.97
2023-01-18T15:37:25.921Z,7.87
2023-01-18T15:40:01.487Z,6.10
2023-01-18T15:42:33.217Z,5.67
2023-01-18T15:45:02.526Z,4.43
2023-01-18T15:47:36.662Z,6.37
2023-01-18T15:50:16.450Z,6.43
2023-01-18T15:52:46.665Z,7.40
2023-01-18T15:55:24.577Z,8.00
2023-01-18T15:58:00.458Z,6.77
2023-01-18T16:00:33.300Z,4.17
2023-01-18T16:03:03.049Z,6.30
2023-01-18T16:05:32.899Z,4.90
2023-01-18T16:08:19.916Z,6.57
2023-01-18T16:10:50.025Z,4.87
2023-01-18T16:13:32.162Z,7.40
2023-01-18T16:16:19.200Z,7.97
2023-01-18T16:18:49.976Z,4.73
2023-01-18T16:21:34.145Z,8.00
2023-01-18T16:24:02.116Z,6.13
2023-01-18T16:26:31.999Z,7.70
2023-01-18T16:29:08.921Z,5.80
2023-01-18T16:31:43.316Z,8.10
2023-01-18T16:34:20.601Z,8.53
2023-01-18T16:36:48.908Z,11.27
2023-01-18T16:39:16.922Z,35.37
2023-01-18T16:41:52.020Z,13.97
2023-01-18T16:44:20.807Z,23.70
2023-01-18T16:46:50.552Z,26.07
2023-01-18T16:49:18.599Z,29.03
2023-01-18T16:51:47.526Z,13.40
2023-01-18T16:54:15.459Z,13.03
2023-01-18T16:56:45.889Z,13.70
2023-01-18T16:59:17.922Z,12.13
2023-01-18T17:01:46.719Z,8.57
2023-01-18T17:04:16.570Z,14.47
2023-01-18T17:06:45.417Z,8.57
2023-01-18T17:09:21.219Z,13.90
2023-01-18T17:11:50.027Z,6.13
2023-01-18T17:14:18.217Z,6.90
2023-01-18T17:16:46.773Z,10.20
2023-01-18T17:19:18.147Z,10.80
2023-01-18T17:21:47.858Z,12.73
2023-01-18T17:24:16.530Z,11.07
2023-01-18T17:26:45.114Z,8.83
2023-01-18T17:29:17.388Z,10.17
2023-01-18T17:31:52.162Z,8.40
2023-01-18T17:34:27.925Z,13.93
2023-01-18T17:36:58.425Z,7.67
2023-01-18T17:39:37.424Z,8.90
2023-01-18T17:42:19.290Z,26.27
2023-01-18T17:44:50.823Z,14.57
2023-01-18T17:47:21.008Z,13.83
2023-01-18T17:49:50.217Z,12.63
2023-01-18T17:52:18.046Z,15.33
2023-01-18T17:54:45.806Z,14.43
2023-01-18T17:57:13.990Z,15.37
2023-01-18T17:59:41.831Z,13.30
2023-01-18T18:02:11.622Z,15.23
2023-01-18T18:04:39.619Z,10.73
2023-01-18T18:07:08.815Z,5.93
2023-01-18T18:09:40.614Z,6.57
2023-01-18T18:12:09.532Z,11.83
2023-01-18T18:14:40.176Z,7.83
2023-01-18T18:17:09.258Z,7.90
2023-01-18T18:19:37.208Z,9.33
2023-01-18T18:22:06.098Z,6.37
2023-01-18T18:24:35.354Z,5.47
2023-01-18T18:27:03.674Z,8.50
2023-01-18T18:29:31.604Z,11.10
2023-01-18T18:31:59.588Z,10.00
2023-01-18T18:34:27.542Z,6.80
2023-01-18T18:36:55.342Z,7.77
2023-01-18T18:39:23.665Z,6.50
2023-01-18T18:41:53.122Z,5.97
2023-01-18T18:44:21.010Z,6.13
2023-01-18T18:46:48.975Z,7.00
2023-01-18T18:49:16.824Z,6.77
2023-01-18T18:51:44.668Z,6.23
2023-01-18T18:54:12.828Z,6.10
2023-01-18T18:56:41.487Z,6.63
2023-01-18T18:59:10.907Z,7.90
2023-01-18T19:01:38.873Z,5.50
2023-01-18T19:04:06.814Z,6.93
2023-01-18T19:06:35.381Z,5.67
2023-01-18T19:09:05.308Z,6.53
2023-01-18T19:11:33.399Z,10.27
2023-01-18T19:14:03.987Z,12.07
2023-01-18T19:16:33.424Z,11.93
2023-01-18T19:19:02.569Z,15.43
2023-01-18T19:21:30.488Z,16.17
2023-01-18T19:23:58.354Z,16.50
2023-01-18T19:26:26.466Z,36.97
2023-01-18T19:28:56.825Z,38.30
2023-01-18T19:31:24.807Z,35.43
2023-01-18T19:33:56.311Z,27.33
2023-01-18T19:36:24.283Z,33.60
2023-01-18T19:38:57.815Z,29.93
2023-01-18T19:41:30.227Z,27.73
2023-01-18T19:43:58.217Z,19.83
2023-01-18T19:46:26.265Z,15.60
2023-01-18T19:48:59.537Z,16.60
2023-01-18T19:51:30.417Z,20.43
2023-01-18T19:53:58.608Z,15.83
2023-01-18T19:56:28.080Z,14.27
2023-01-18T19:58:56.017Z,9.83
2023-01-18T20:01:36.294Z,8.87
2023-01-18T20:04:07.677Z,10.87
2023-01-18T20:06:37.580Z,9.87
2023-01-18T20:09:17.674Z,8.57
2023-01-18T20:11:46.455Z,7.53
2023-01-18T20:14:18.401Z,6.43
2023-01-18T20:16:46.922Z,10.73
2023-01-18T20:19:17.420Z,9.47
2023-01-18T20:21:45.237Z,9.63
2023-01-18T20:24:13.047Z,6.20
2023-01-18T20:26:42.020Z,7.87
2023-01-18T20:29:11.129Z,6.60
2023-01-18T20:31:40.421Z,11.83
2023-01-18T20:34:08.727Z,8.30
2023-01-18T20:36:37.930Z,6.67
2023-01-18T20:39:06.341Z,7.03
2023-01-18T20:41:34.341Z,8.90
2023-01-18T20:44:02.232Z,10.10
2023-01-18T20:46:30.080Z,8.50
2023-01-18T20:48:58.502Z,6.70
2023-01-18T20:51:27.134Z,7.43
2023-01-18T20:53:56.554Z,7.33
2023-01-18T20:56:29.833Z,6.50
2023-01-18T20:59:00.137Z,8.27
2023-01-18T21:01:32.926Z,6.63
2023-01-18T21:04:02.732Z,11.53
2023-01-18T21:06:31.371Z,7.10
2023-01-18T21:09:01.660Z,10.10
2023-01-18T21:11:29.555Z,8.50
2023-01-18T21:13:59.871Z,7.77
2023-01-18T21:16:28.515Z,7.00
2023-01-18T21:18:58.688Z,8.70
2023-01-18T21:21:29.290Z,8.47
2023-01-18T21:24:01.043Z,10.43
2023-01-18T21:26:28.971Z,8.20
2023-01-18T21:28:56.843Z,7.10
2023-01-18T21:31:25.109Z,10.23
2023-01-18T21:33:53.010Z,8.00
2023-01-18T21:36:22.915Z,7.67
2023-01-18T21:38:51.319Z,10.17
2023-01-18T21:41:38.665Z,9.40
2023-01-18T21:44:24.066Z,8.93
2023-01-18T21:46:53.061Z,8.17
2023-01-18T21:50:03.929Z,7.27
2023-01-18T21:52:44.686Z,8.70
2023-01-18T21:55:13.214Z,5.73
2023-01-18T21:57:42.418Z,7.57
2023-01-18T22:00:11.670Z,6.03
2023-01-18T22:02:39.477Z,6.33
2023-01-18T22:05:08.601Z,8.37
2023-01-18T22:07:36.631Z,8.77
2023-01-18T22:10:06.770Z,7.80
2023-01-18T22:12:38.856Z,8.97
2023-01-18T22:15:09.485Z,7.40
2023-01-18T22:17:37.303Z,7.13
2023-01-18T22:20:05.819Z,6.23
2023-01-18T22:22:33.635Z,7.47
2023-01-18T22:25:02.339Z,6.53
2023-01-18T22:27:30.366Z,6.80
2023-01-18T22:29:58.244Z,9.83
2023-01-18T22:32:27.837Z,10.37
2023-01-18T22:34:55.643Z,9.23
2023-01-18T22:37:23.519Z,8.40
2023-01-18T22:39:51.705Z,8.93
2023-01-18T22:42:20.016Z,8.60
2023-01-18T22:44:47.914Z,10.07
2023-01-18T22:47:15.661Z,9.77
2023-01-18T22:49:44.811Z,9.83
2023-01-18T22:52:14.760Z,9.87
2023-01-18T22:54:42.740Z,11.30
2023-01-18T22:57:10.662Z,10.20
2023-01-18T22:59:38.485Z,10.97
2023-01-18T23:02:06.279Z,9.27
2023-01-18T23:04:34.347Z,8.97
2023-01-18T23:07:03.760Z,11.97
2023-01-18T23:09:31.577Z,13.80
2023-01-18T23:11:59.416Z,9.53
2023-01-18T23:14:44.725Z,9.27
2023-01-18T23:17:32.591Z,9.83
2023-01-18T23:20:00.651Z,8.40
2023-01-18T23:22:30.085Z,9.27
2023-01-18T23:24:58.144Z,7.43
2023-01-18T23:27:26.168Z,8.37
2023-01-18T23:29:58.802Z,10.57
2023-01-18T23:32:30.383Z,9.63
2023-01-18T23:34:58.664Z,7.53
2023-01-18T23:37:27.355Z,8.17
2023-01-18T23:40:14.253Z,8.77
2023-01-18T23:42:59.802Z,7.27
2023-01-18T23:45:45.213Z,10.27
2023-01-18T23:48:32.423Z,7.80
2023-01-18T23:51:18.233Z,6.17
2023-01-18T23:54:03.920Z,8.93
2023-01-18T23:56:33.161Z,8.27
2023-01-18T23:59:01.060Z,9.10
